Time;durP1;ratioP1;P1;durP2;ratioP2;P2;SDS_P1;SDS_P2;PMS_P1;PMS_P2;Temp;Humidity;BMP_temperature;BMP_pressure;BME280_temperature;BME280_humidity;BME280_pressure;Samples;Min_cycle;Max_cycle;Signal;HPM_P1;HPM_P2
2022/11/16 00:02:18;;;;;;;3.07;2.77;;;15.30;99.90;;;;;;5006648;28;20692;-29
2022/11/16 00:04:48;;;;;;;4.50;2.93;;;15.30;99.90;;;;;;5007109;28;20779;-29
2022/11/16 00:07:17;;;;;;;3.67;2.80;;;15.30;99.90;;;;;;5005612;28;20325;-29
2022/11/16 00:09:45;;;;;;;3.30;2.80;;;15.30;99.90;;;;;;5006033;28;20213;-29
2022/11/16 00:12:15;;;;;;;2.83;2.47;;;15.30;99.90;;;;;;5004594;28;20263;-29
2022/11/16 00:14:42;;;;;;;3.80;2.70;;;15.30;99.90;;;;;;5004932;28;20265;-29
2022/11/16 00:17:14;;;;;;;3.63;2.90;;;15.30;99.90;;;;;;5006069;28;20523;-29
2022/11/16 00:19:41;;;;;;;2.83;2.50;;;15.30;99.90;;;;;;5006474;28;20263;-29
2022/11/16 00:22:08;;;;;;;4.00;2.97;;;15.30;99.90;;;;;;5005927;28;20209;-29
2022/11/16 00:24:36;;;;;;;2.50;2.20;;;15.30;99.90;;;;;;5006627;28;20213;-29
2022/11/16 00:27:03;;;;;;;3.60;2.30;;;15.30;99.90;;;;;;5005699;28;20209;-29
2022/11/16 00:29:33;;;;;;;2.53;2.30;;;15.20;99.90;;;;;;5005844;28;20225;-29
2022/11/16 00:32:00;;;;;;;2.60;2.40;;;15.30;99.90;;;;;;5006386;28;20212;-29
2022/11/16 00:34:31;;;;;;;3.43;2.60;;;15.30;99.90;;;;;;5006229;28;20217;-27
2022/11/16 00:37:00;;;;;;;4.03;2.73;;;15.20;99.90;;;;;;5005936;28;20193;-27
2022/11/16 00:39:30;;;;;;;2.67;2.40;;;15.30;99.90;;;;;;5006026;28;20239;-27
2022/11/16 00:41:59;;;;;;;3.00;2.70;;;15.30;99.90;;;;;;5005908;28;20208;-27
2022/11/16 00:44:33;;;;;;;2.90;2.60;;;15.30;99.90;;;;;;5005960;28;20201;-27
2022/11/16 00:47:04;;;;;;;2.43;2.23;;;15.30;99.90;;;;;;5006627;28;20313;-27
2022/11/16 00:49:34;;;;;;;3.83;2.70;;;15.30;99.90;;;;;;4968695;28;1106020;-27
2022/11/16 00:52:03;;;;;;;5.10;2.97;;;15.30;99.90;;;;;;5006977;28;20565;-29
2022/11/16 00:54:30;;;;;;;3.10;2.53;;;15.30;99.90;;;;;;5006522;28;20336;-27
2022/11/16 00:57:00;;;;;;;3.07;2.77;;;15.30;99.90;;;;;;5006949;28;20612;-27
2022/11/16 00:59:27;;;;;;;3.43;3.10;;;15.20;99.90;;;;;;5006635;28;20212;-27
2022/11/16 01:01:54;;;;;;;2.77;2.33;;;15.30;99.90;;;;;;5007327;28;20477;-27
2022/11/16 01:04:23;;;;;;;4.10;2.70;;;15.30;99.90;;;;;;5007221;28;20442;-27
2022/11/16 01:06:51;;;;;;;4.23;2.73;;;15.30;99.90;;;;;;5007357;28;20210;-27
2022/11/16 01:09:18;;;;;;;3.10;2.77;;;15.30;99.90;;;;;;5006960;28;20265;-27
2022/11/16 01:12:07;;;;;;;3.03;2.77;;;15.30;99.90;;;;;;5007304;28;20668;-27
2022/11/16 01:14:45;;;;;;;3.80;3.00;;;15.30;99.90;;;;;;5007193;28;20324;-27
2022/11/16 01:17:15;;;;;;;4.07;2.80;;;15.30;99.90;;;;;;5006909;28;20614;-27
2022/11/16 01:19:46;;;;;;;4.80;3.10;;;15.30;99.90;;;;;;5020997;28;20202;-27
2022/11/16 01:22:13;;;;;;;3.60;2.80;;;15.30;99.90;;;;;;5006034;28;20204;-27
2022/11/16 01:24:43;;;;;;;3.30;3.00;;;15.30;99.90;;;;;;5021657;28;20484;-27
2022/11/16 01:27:10;;;;;;;4.20;3.10;;;15.30;99.90;;;;;;5005950;28;20206;-27
2022/11/16 01:29:42;;;;;;;3.60;2.37;;;15.20;99.90;;;;;;5007439;28;20661;-27
2022/11/16 01:32:11;;;;;;;3.10;2.80;;;15.20;99.90;;;;;;5006108;28;20216;-27
2022/11/16 01:34:41;;;;;;;4.10;2.37;;;15.30;99.90;;;;;;5006718;28;20226;-27
2022/11/16 01:37:08;;;;;;;2.50;2.10;;;15.30;99.90;;;;;;5006253;28;20309;-29
2022/11/16 01:39:35;;;;;;;3.77;2.10;;;15.30;99.90;;;;;;5006758;28;20212;-30
2022/11/16 01:42:03;;;;;;;2.17;1.70;;;15.30;99.90;;;;;;5006855;28;21031;-30
2022/11/16 01:44:35;;;;;;;1.50;1.40;;;15.20;99.90;;;;;;5006529;28;20193;-30
2022/11/16 01:47:07;;;;;;;3.00;1.50;;;15.20;99.90;;;;;;5006692;28;20284;-29
2022/11/16 01:49:41;;;;;;;1.67;1.30;;;15.20;99.90;;;;;;5006656;28;20248;-28
2022/11/16 01:52:12;;;;;;;2.50;1.60;;;15.10;99.90;;;;;;5006141;28;20824;-28
2022/11/16 01:54:47;;;;;;;3.07;1.60;;;15.10;99.90;;;;;;5006455;28;20222;-28
2022/11/16 01:57:22;;;;;;;4.17;1.90;;;15.10;99.90;;;;;;5005201;28;20663;-28
2022/11/16 01:59:56;;;;;;;3.27;1.50;;;15.00;99.90;;;;;;4986081;28;20201;-28
2022/11/16 02:02:25;;;;;;;2.40;1.40;;;15.00;99.90;;;;;;4990061;28;20982;-28
2022/11/16 02:04:57;;;;;;;3.63;1.47;;;14.90;99.90;;;;;;4997870;28;20213;-27
2022/11/16 02:11:15;;;;;;;2.53;1.60;;;14.80;99.90;;;;;;4998207;28;20201;-27
2022/11/16 02:14:11;;;;;;;3.03;1.47;;;14.70;99.90;;;;;;5020242;28;20217;-27
2022/11/16 02:16:58;;;;;;;4.30;1.30;;;14.70;99.90;;;;;;4991837;28;20256;-27
2022/11/16 02:19:41;;;;;;;2.93;1.40;;;14.60;99.90;;;;;;5005891;28;20210;-27
2022/11/16 02:22:37;;;;;;;2.33;1.70;;;14.60;99.90;;;;;;5005063;28;20688;-27
2022/11/16 02:25:16;;;;;;;2.43;1.47;;;14.50;99.90;;;;;;5003200;28;20294;-27
2022/11/16 02:28:12;;;;;;;2.30;1.30;;;14.40;99.90;;;;;;4995487;28;20606;-27
2022/11/16 02:30:48;;;;;;;2.10;1.40;;;14.40;99.90;;;;;;4985948;28;20302;-27
2022/11/16 02:33:21;;;;;;;3.03;1.47;;;14.40;99.90;;;;;;4985792;28;20272;-27
2022/11/16 02:35:57;;;;;;;1.30;1.20;;;14.30;99.90;;;;;;4985856;28;20325;-27
2022/11/16 02:38:38;;;;;;;3.10;1.27;;;14.30;99.90;;;;;;4983231;28;20220;-27
2022/11/16 02:41:14;;;;;;;2.97;1.30;;;14.30;99.90;;;;;;4985895;28;20213;-27
2022/11/16 02:43:51;;;;;;;4.33;1.50;;;14.20;99.90;;;;;;4985757;28;20248;-27
2022/11/16 02:46:28;;;;;;;1.47;1.30;;;14.20;99.90;;;;;;4996835;28;20213;-27
2022/11/16 02:49:01;;;;;;;3.17;1.50;;;14.20;99.90;;;;;;5004849;28;20724;-27
2022/11/16 02:51:35;;;;;;;5.30;1.70;;;14.10;99.90;;;;;;5005186;28;20201;-27
2022/11/16 02:54:08;;;;;;;2.00;1.30;;;14.10;99.90;;;;;;5004251;28;20288;-27
2022/11/16 02:57:05;;;;;;;2.30;1.40;;;14.10;99.90;;;;;;5020010;28;20268;-27
2022/11/16 02:59:43;;;;;;;4.43;1.83;;;14.00;99.90;;;;;;5005098;28;20289;-27
2022/11/16 03:02:45;;;;;;;2.53;1.17;;;14.00;99.90;;;;;;5005050;28;20244;-27
2022/11/16 03:05:30;;;;;;;3.13;1.80;;;14.00;99.90;;;;;;4999861;28;20239;-27
2022/11/16 03:08:17;;;;;;;3.37;1.73;;;13.90;99.90;;;;;;5003945;28;20206;-27
2022/11/16 03:13:39;;;;;;;3.17;1.80;;;13.90;99.90;;;;;;5004589;28;20300;-27
2022/11/16 03:16:35;;;;;;;3.00;2.00;;;13.90;99.90;;;;;;5018636;28;20245;-27
2022/11/16 03:19:06;;;;;;;3.43;1.97;;;13.90;99.90;;;;;;4997417;28;20554;-27
2022/11/16 03:21:46;;;;;;;2.93;2.03;;;13.90;99.90;;;;;;5005245;28;20197;-27
2022/11/16 03:24:16;;;;;;;4.80;2.10;;;13.90;99.90;;;;;;5004069;28;20197;-27
2022/11/16 03:26:56;;;;;;;5.77;2.20;;;13.80;99.90;;;;;;5004581;28;20235;-27
2022/11/16 03:29:30;;;;;;;5.23;2.50;;;13.80;99.90;;;;;;5004816;28;20222;-27
2022/11/16 03:32:34;;;;;;;4.33;2.57;;;13.80;99.90;;;;;;5003376;28;20715;-27
2022/11/16 03:35:27;;;;;;;4.57;2.60;;;13.80;99.90;;;;;;4995886;28;20942;-27
2022/11/16 03:37:58;;;;;;;5.73;3.00;;;13.70;99.90;;;;;;5003388;28;20239;-27
2022/11/16 03:40:31;;;;;;;5.97;2.67;;;13.70;99.90;;;;;;5005199;28;20308;-27
2022/11/16 03:43:03;;;;;;;5.17;2.67;;;13.70;99.90;;;;;;5007619;28;20197;-27
2022/11/16 03:45:36;;;;;;;3.33;2.37;;;13.70;99.90;;;;;;5006966;28;20316;-27
2022/11/16 03:48:08;;;;;;;4.27;2.40;;;13.60;99.90;;;;;;5006423;28;20242;-27
2022/11/16 03:50:38;;;;;;;5.17;2.20;;;13.60;99.90;;;;;;5008474;28;20244;-27
2022/11/16 03:53:07;;;;;;;3.80;2.30;;;13.60;99.90;;;;;;5007611;28;20241;-27
2022/11/16 03:55:35;;;;;;;2.13;1.93;;;13.60;99.90;;;;;;5008402;28;20223;-27
2022/11/16 03:58:03;;;;;;;5.40;2.70;;;13.60;99.90;;;;;;5007642;28;20197;-27
2022/11/16 04:00:32;;;;;;;4.87;2.63;;;13.60;99.90;;;;;;5008117;28;20292;-27
2022/11/16 04:03:02;;;;;;;4.33;2.50;;;13.60;99.90;;;;;;5007644;28;20313;-28
2022/11/16 04:25:30;;;;;;;6.77;2.60;;;13.30;99.90;;;;;;5007624;28;20216;-30
2022/11/16 04:28:15;;;;;;;6.47;2.63;;;13.20;99.90;;;;;;5007850;28;20319;-30
2022/11/16 04:39:08;;;;;;;5.53;2.80;;;13.10;99.90;;;;;;5006404;28;20204;-30
2022/11/16 04:47:05;;;;;;;10.50;3.57;;;13.00;99.90;;;;;;5007272;28;20228;-30
2022/11/16 04:47:16;;;;;;;6.70;2.80;;;13.00;99.90;;;;;;5007362;28;20685;-30
2022/11/16 04:49:46;;;;;;;5.57;2.50;;;12.90;99.90;;;;;;5007404;28;20208;-30
2022/11/16 04:52:15;;;;;;;5.20;2.43;;;12.90;99.90;;;;;;5004837;28;20811;-30
2022/11/16 04:54:42;;;;;;;5.20;2.87;;;12.90;99.90;;;;;;5006576;28;20688;-29
2022/11/16 04:57:09;;;;;;;5.00;2.30;;;12.90;99.90;;;;;;5006609;28;20224;-30
2022/11/16 04:59:42;;;;;;;6.10;2.33;;;12.80;99.90;;;;;;5005316;28;20696;-29
2022/11/16 05:02:09;;;;;;;6.37;2.77;;;12.80;99.90;;;;;;5006841;28;20827;-30
2022/11/16 05:04:41;;;;;;;5.60;2.70;;;12.80;99.90;;;;;;5006855;28;20201;-28
2022/11/16 05:07:13;;;;;;;5.70;2.50;;;12.70;99.90;;;;;;5006222;28;20617;-29
2022/11/16 05:09:45;;;;;;;5.00;2.00;;;12.70;99.90;;;;;;5006696;28;20293;-29
2022/11/16 05:12:21;;;;;;;3.63;2.07;;;12.70;99.90;;;;;;5004687;28;20316;-29
2022/11/16 05:14:56;;;;;;;5.40;2.10;;;12.60;99.90;;;;;;5006947;28;20219;-27
2022/11/16 05:17:24;;;;;;;5.17;2.30;;;12.60;99.90;;;;;;5006685;28;20817;-29
2022/11/16 05:22:39;;;;;;;4.37;2.07;;;12.50;99.90;;;;;;5006204;28;20197;-28
2022/11/16 05:25:08;;;;;;;6.33;2.10;;;12.50;99.90;;;;;;5006845;28;20197;-28
2022/11/16 05:27:37;;;;;;;6.27;2.00;;;12.50;99.90;;;;;;5005123;28;20229;-28
2022/11/16 05:30:05;;;;;;;7.50;1.63;;;12.50;99.90;;;;;;5007143;28;20316;-28
2022/11/16 05:32:32;;;;;;;7.37;2.10;;;12.40;99.90;;;;;;5005203;28;20201;-28
2022/11/16 05:34:59;;;;;;;5.07;1.90;;;12.40;99.90;;;;;;5006481;28;20252;-28
2022/11/16 05:37:31;;;;;;;7.60;2.17;;;12.40;99.90;;;;;;5005912;28;20233;-28
2022/11/16 05:40:01;;;;;;;5.83;2.10;;;12.40;99.90;;;;;;5021446;28;20190;-28
2022/11/16 05:42:28;;;;;;;8.30;2.20;;;12.40;99.90;;;;;;5005697;28;20612;-28
2022/11/16 05:45:00;;;;;;;7.33;2.17;;;12.30;99.90;;;;;;5006516;28;20204;-28
2022/11/16 05:47:29;;;;;;;4.77;1.77;;;12.30;99.90;;;;;;5004227;28;20217;-28
2022/11/16 05:49:57;;;;;;;6.00;1.93;;;12.30;99.90;;;;;;5006501;28;20233;-28
2022/11/16 05:52:24;;;;;;;9.53;2.37;;;12.30;99.90;;;;;;5020306;28;20760;-28
2022/11/16 05:54:51;;;;;;;5.63;1.80;;;12.20;99.90;;;;;;5006430;28;20208;-28
2022/11/16 05:57:20;;;;;;;3.80;1.70;;;12.20;99.90;;;;;;5019769;28;20230;-28
2022/11/16 05:59:47;;;;;;;6.23;1.70;;;12.10;99.90;;;;;;5003624;28;20325;-27
2022/11/16 06:02:14;;;;;;;5.13;1.90;;;12.10;99.90;;;;;;5000972;28;20680;-28
2022/11/16 06:04:41;;;;;;;6.40;1.87;;;12.10;99.90;;;;;;5015608;28;20210;-30
2022/11/16 06:07:09;;;;;;;7.47;1.97;;;12.10;99.90;;;;;;5001348;28;20600;-28
2022/11/16 06:09:36;;;;;;;7.20;2.20;;;12.00;99.90;;;;;;4999086;28;20296;-28
2022/11/16 06:12:03;;;;;;;9.23;2.50;;;12.10;99.90;;;;;;5000908;28;20201;-28
2022/11/16 06:14:30;;;;;;;7.10;2.80;;;12.00;99.90;;;;;;5001672;28;20197;-28
2022/11/16 06:17:00;;;;;;;10.90;3.10;;;12.00;99.90;;;;;;5000795;28;20265;-28
2022/11/16 06:19:28;;;;;;;7.87;2.33;;;11.90;99.90;;;;;;5002123;28;20206;-28
2022/11/16 06:22:00;;;;;;;10.03;2.53;;;11.90;99.90;;;;;;5000324;28;20280;-28
2022/11/16 06:24:30;;;;;;;7.83;2.60;;;11.90;99.90;;;;;;5004944;28;20210;-28
2022/11/16 06:26:57;;;;;;;7.10;2.23;;;11.90;99.90;;;;;;4990669;28;20206;-28
2022/11/16 06:29:26;;;;;;;6.60;2.40;;;11.90;99.90;;;;;;5004209;28;20312;-28
2022/11/16 06:31:53;;;;;;;6.07;2.30;;;11.80;99.90;;;;;;4991379;28;20305;-28
2022/11/16 06:34:20;;;;;;;8.97;2.13;;;11.80;99.90;;;;;;4986829;28;20301;-27
2022/11/16 06:36:50;;;;;;;8.70;2.53;;;11.80;99.90;;;;;;4992427;28;20249;-28
2022/11/16 06:39:19;;;;;;;10.97;2.93;;;11.80;99.90;;;;;;5005332;28;20245;-28
2022/11/16 06:41:46;;;;;;;6.73;1.90;;;11.70;99.90;;;;;;5004765;28;20204;-28
2022/11/16 06:44:13;;;;;;;7.43;2.07;;;11.70;99.90;;;;;;5004034;28;20673;-28
2022/11/16 06:46:40;;;;;;;7.43;2.27;;;11.70;99.90;;;;;;5004282;28;20194;-28
2022/11/16 06:49:08;;;;;;;10.50;2.53;;;11.70;99.90;;;;;;5005205;28;20320;-28
2022/11/16 06:51:37;;;;;;;6.30;2.03;;;11.70;99.90;;;;;;5005549;28;20208;-28
2022/11/16 06:54:06;;;;;;;7.03;1.80;;;11.60;99.90;;;;;;5004595;28;20212;-28
2022/11/16 06:56:36;;;;;;;9.80;2.40;;;11.60;99.90;;;;;;5005394;28;20336;-28
2022/11/16 06:59:03;;;;;;;7.00;1.97;;;11.60;99.90;;;;;;5020006;28;20248;-28
2022/11/16 07:01:33;;;;;;;9.03;1.73;;;11.60;99.90;;;;;;4999277;28;20201;-28
2022/11/16 07:04:10;;;;;;;8.07;2.10;;;11.60;99.90;;;;;;4994411;28;20194;-28
2022/11/16 07:06:38;;;;;;;9.07;2.33;;;11.60;99.90;;;;;;5006576;28;20208;-28
2022/11/16 07:09:08;;;;;;;6.03;1.63;;;11.50;99.90;;;;;;5008623;28;20224;-28
2022/11/16 07:11:36;;;;;;;10.87;2.20;;;11.50;99.90;;;;;;5003267;28;21675;-28
2022/11/16 07:14:03;;;;;;;8.73;2.20;;;11.50;99.90;;;;;;5007049;28;20198;-28
2022/11/16 07:16:34;;;;;;;7.30;2.50;;;11.50;99.90;;;;;;4998997;28;20785;-28
2022/11/16 07:19:04;;;;;;;8.10;2.10;;;11.50;99.90;;;;;;5018708;28;20240;-28
2022/11/16 07:21:35;;;;;;;6.63;1.83;;;11.50;99.90;;;;;;5017456;28;20232;-28
2022/11/16 07:24:05;;;;;;;9.30;2.23;;;11.50;99.90;;;;;;5019071;28;20219;-28
2022/11/16 07:26:34;;;;;;;14.87;2.80;;;11.50;99.90;;;;;;5027198;28;20692;-28
2022/11/16 07:29:04;;;;;;;9.07;2.63;;;11.50;99.90;;;;;;5028163;28;20197;-28
2022/11/16 07:31:34;;;;;;;6.67;1.90;;;11.50;99.90;;;;;;5019550;28;20275;-28
2022/11/16 07:34:03;;;;;;;10.60;2.67;;;11.50;99.90;;;;;;5025374;28;20311;-28
2022/11/16 07:36:35;;;;;;;6.97;1.93;;;11.50;99.90;;;;;;5010118;28;20249;-28
2022/11/16 07:39:02;;;;;;;10.40;2.63;;;11.50;99.90;;;;;;5008128;28;20203;-28
2022/11/16 07:41:30;;;;;;;6.93;1.93;;;11.50;99.90;;;;;;5004899;28;20693;-28
2022/11/16 07:44:00;;;;;;;12.47;2.47;;;11.50;99.90;;;;;;5017601;28;20201;-28
2022/11/16 07:46:29;;;;;;;9.57;2.03;;;11.50;99.90;;;;;;5011675;28;20865;-28
2022/11/16 07:49:18;;;;;;;9.17;2.40;;;11.50;99.90;;;;;;5027109;28;20237;-29
2022/11/16 07:51:45;;;;;;;6.73;2.27;;;11.50;99.90;;;;;;5018343;28;20256;-28
2022/11/16 07:54:15;;;;;;;7.80;2.37;;;11.50;99.90;;;;;;5004479;28;20220;-28
2022/11/16 07:56:45;;;;;;;12.07;2.90;;;11.50;99.90;;;;;;5001110;28;20221;-28
2022/11/16 07:59:12;;;;;;;11.17;3.30;;;11.50;99.90;;;;;;5008851;28;20351;-28
2022/11/16 08:01:41;;;;;;;16.87;4.07;;;11.50;99.90;;;;;;5014931;28;20423;-28
2022/11/16 08:04:14;;;;;;;13.07;3.27;;;11.50;99.90;;;;;;5018571;28;20288;-28
2022/11/16 08:06:44;;;;;;;9.33;2.70;;;11.50;99.90;;;;;;5021903;28;20204;-28
2022/11/16 08:09:14;;;;;;;7.37;2.37;;;11.50;99.90;;;;;;5007225;28;20332;-28
2022/11/16 08:11:43;;;;;;;11.83;4.17;;;11.50;99.90;;;;;;5011143;28;20303;-28
2022/11/16 08:14:11;;;;;;;30.53;7.27;;;11.50;99.90;;;;;;5018030;28;20589;-28
2022/11/16 08:16:43;;;;;;;14.27;3.87;;;11.50;99.90;;;;;;5005999;28;20241;-29
2022/11/16 08:19:10;;;;;;;10.53;2.97;;;11.60;99.90;;;;;;4999973;28;20202;-31
2022/11/16 08:21:37;;;;;;;8.33;2.27;;;11.60;99.90;;;;;;5006863;28;20222;-31
2022/11/16 08:24:07;;;;;;;6.73;2.40;;;11.60;99.90;;;;;;5019021;28;20299;-31
2022/11/16 08:26:34;;;;;;;9.47;2.60;;;11.60;99.90;;;;;;5002475;28;20210;-31
2022/11/16 08:29:03;;;;;;;17.80;5.00;;;11.60;99.90;;;;;;4987192;28;20220;-31
2022/11/16 08:31:33;;;;;;;7.53;2.30;;;11.70;99.90;;;;;;5025030;28;20304;-31
2022/11/16 08:34:02;;;;;;;7.67;2.23;;;11.70;99.90;;;;;;5018889;28;21040;-31
2022/11/16 08:36:32;;;;;;;8.57;2.10;;;11.70;99.90;;;;;;5018972;28;20328;-31
2022/11/16 08:39:01;;;;;;;8.43;2.10;;;11.80;99.90;;;;;;5020839;28;20239;-31
2022/11/16 08:41:31;;;;;;;7.57;1.93;;;11.80;99.90;;;;;;5007357;28;20716;-31
2022/11/16 08:44:03;;;;;;;7.17;2.00;;;11.80;99.90;;;;;;5013251;28;20222;-31
2022/11/16 08:46:30;;;;;;;3.83;1.50;;;11.80;99.90;;;;;;5007305;28;20289;-31
2022/11/16 08:48:58;;;;;;;9.13;2.00;;;11.80;99.90;;;;;;4999204;28;20727;-31
2022/11/16 08:51:25;;;;;;;8.70;1.80;;;11.80;99.90;;;;;;5002267;28;20212;-31
2022/11/16 08:53:58;;;;;;;11.10;2.30;;;11.90;99.90;;;;;;4997695;28;20585;-31
2022/11/16 08:56:29;;;;;;;9.13;2.00;;;11.90;99.90;;;;;;4989771;28;20202;-32
2022/11/16 08:58:58;;;;;;;7.03;1.80;;;11.90;99.90;;;;;;5001564;28;20292;-31
2022/11/16 09:01:31;;;;;;;6.03;2.00;;;11.90;99.90;;;;;;5008738;28;20347;-31
2022/11/16 09:03:58;;;;;;;7.77;1.80;;;11.90;99.90;;;;;;5011636;28;20217;-31
2022/11/16 09:06:26;;;;;;;6.60;1.67;;;12.00;99.90;;;;;;5000481;28;20689;-31
2022/11/16 09:08:56;;;;;;;6.43;2.20;;;12.00;99.90;;;;;;4995070;28;20213;-31
2022/11/16 09:11:24;;;;;;;6.70;1.80;;;12.00;99.90;;;;;;4997925;28;20229;-31
2022/11/16 09:13:55;;;;;;;7.77;1.70;;;12.00;99.90;;;;;;5000964;28;20686;-31
2022/11/16 09:16:27;;;;;;;7.53;2.30;;;12.10;99.90;;;;;;5005695;28;20487;-31
2022/11/16 09:18:57;;;;;;;5.63;1.87;;;12.10;99.90;;;;;;5018095;28;20271;-31
2022/11/16 09:21:29;;;;;;;6.17;2.00;;;12.10;99.90;;;;;;5026181;28;20291;-31
2022/11/16 09:23:59;;;;;;;5.87;1.90;;;12.20;99.90;;;;;;4988675;28;20214;-31
2022/11/16 09:26:26;;;;;;;4.10;1.53;;;12.20;99.90;;;;;;5007357;28;20198;-31
2022/11/16 09:28:58;;;;;;;8.33;2.20;;;12.20;99.90;;;;;;5002945;28;20669;-29
2022/11/16 09:31:27;;;;;;;5.77;1.80;;;12.20;99.90;;;;;;5018194;28;20319;-29
2022/11/16 09:33:57;;;;;;;8.50;1.70;;;12.30;99.90;;;;;;5022938;28;20259;-29
2022/11/16 09:36:26;;;;;;;7.93;1.73;;;12.40;99.90;;;;;;5014289;28;20209;-29
2022/11/16 09:38:53;;;;;;;4.13;1.70;;;12.40;99.90;;;;;;5005895;28;20209;-29
2022/11/16 09:42:00;;;;;;;5.60;1.90;;;12.50;99.90;;;;;;5010933;28;20210;-29
2022/11/16 09:44:33;;;;;;;5.93;1.80;;;12.50;99.90;;;;;;5001634;28;20203;-29
2022/11/16 09:47:01;;;;;;;9.80;2.07;;;12.60;99.90;;;;;;5008381;28;20284;-29
2022/11/16 09:49:35;;;;;;;10.23;2.03;;;12.60;99.90;;;;;;5004270;28;20315;-29
2022/11/16 09:52:09;;;;;;;5.80;1.60;;;12.70;99.90;;;;;;5018775;28;20222;-29
2022/11/16 09:54:43;;;;;;;5.90;1.87;;;12.70;99.90;;;;;;5022490;28;20228;-29
2022/11/16 09:57:17;;;;;;;6.97;2.10;;;12.80;99.90;;;;;;4998824;28;20300;-29
2022/11/16 09:59:52;;;;;;;3.90;1.73;;;12.90;99.90;;;;;;4997347;28;20217;-29
2022/11/16 10:02:31;;;;;;;4.77;1.77;;;12.90;99.90;;;;;;4995050;28;20206;-29
2022/11/16 10:05:26;;;;;;;4.73;1.80;;;12.90;99.90;;;;;;4994896;28;20209;-29
2022/11/16 10:08:14;;;;;;;5.47;1.93;;;13.00;99.90;;;;;;4993125;28;20778;-29
2022/11/16 10:11:12;;;;;;;6.50;1.83;;;13.00;99.90;;;;;;4998134;28;20218;-29
2022/11/16 10:13:48;;;;;;;11.67;2.20;;;13.10;99.90;;;;;;5002395;28;20253;-29
2022/11/16 10:16:41;;;;;;;6.73;1.90;;;13.10;99.90;;;;;;5016182;28;20658;-29
2022/11/16 10:19:41;;;;;;;4.53;1.77;;;13.10;99.90;;;;;;5007312;28;20232;-29
2022/11/16 10:22:19;;;;;;;8.00;1.97;;;13.20;99.90;;;;;;5024732;28;20204;-29
2022/11/16 10:25:06;;;;;;;6.13;1.53;;;13.20;99.90;;;;;;5014398;28;20209;-29
2022/11/16 10:27:47;;;;;;;7.90;1.83;;;13.30;99.90;;;;;;4985556;28;20239;-29
2022/11/16 10:30:20;;;;;;;9.17;2.03;;;13.30;99.90;;;;;;4996857;28;20210;-29
2022/11/16 10:33:18;;;;;;;6.00;1.80;;;13.40;99.90;;;;;;5032625;28;20683;-29
2022/11/16 10:35:54;;;;;;;6.53;1.87;;;13.40;99.90;;;;;;4994332;28;20214;-30
2022/11/16 10:38:29;;;;;;;9.43;2.30;;;13.40;99.90;;;;;;4992298;28;20286;-29
2022/11/16 10:41:21;;;;;;;5.57;1.60;;;13.50;99.90;;;;;;4994391;28;20205;-29
2022/11/16 10:43:48;;;;;;;8.00;1.90;;;13.60;99.90;;;;;;5005939;28;20549;-31
2022/11/16 10:46:24;;;;;;;7.37;1.67;;;13.60;99.90;;;;;;5010683;28;20665;-31
2022/11/16 10:49:16;;;;;;;8.13;1.80;;;13.60;99.90;;;;;;5004051;28;20240;-31
2022/11/16 10:51:43;;;;;;;5.03;1.30;;;13.60;99.90;;;;;;5010437;28;20212;-31
2022/11/16 10:54:15;;;;;;;5.07;1.50;;;13.70;99.90;;;;;;4999304;28;20256;-31
2022/11/16 10:56:48;;;;;;;10.83;2.40;;;13.70;99.90;;;;;;5020412;28;20200;-32
2022/11/16 10:59:18;;;;;;;6.47;1.50;;;13.80;99.90;;;;;;5027658;28;20209;-31
2022/11/16 11:01:51;;;;;;;7.53;1.80;;;13.80;99.90;;;;;;5014212;28;20237;-31
2022/11/16 11:04:20;;;;;;;6.03;2.23;;;13.80;99.90;;;;;;5003554;28;20677;-31
2022/11/16 11:06:51;;;;;;;6.33;1.73;;;13.80;99.90;;;;;;5009983;28;21261;-29
2022/11/16 11:09:29;;;;;;;6.03;1.70;;;13.80;99.90;;;;;;5003174;28;20564;-30
2022/11/16 11:15:22;;;;;;;2.87;1.50;;;13.90;99.90;;;;;;5009200;28;20584;-29
2022/11/16 11:18:11;;;;;;;5.67;1.60;;;14.00;99.90;;;;;;4999056;28;20233;-30
2022/11/16 11:20:42;;;;;;;7.43;1.73;;;14.00;99.90;;;;;;5006797;28;20244;-30
2022/11/16 11:23:26;;;;;;;5.57;1.50;;;14.10;99.90;;;;;;4993096;28;20602;-30
2022/11/16 11:26:00;;;;;;;5.80;1.97;;;14.10;99.90;;;;;;5010460;28;20313;-30
2022/11/16 11:28:28;;;;;;;5.77;1.47;;;14.20;99.90;;;;;;4999566;28;20218;-29
2022/11/16 11:31:15;;;;;;;6.47;1.33;;;14.20;99.90;;;;;;5001463;28;20235;-30
2022/11/16 11:33:58;;;;;;;5.80;1.33;;;14.30;99.90;;;;;;4992850;28;20208;-30
2022/11/16 11:36:37;;;;;;;7.93;1.53;;;14.30;99.90;;;;;;4991723;28;20288;-30
2022/11/16 11:39:29;;;;;;;7.33;1.87;;;14.40;99.90;;;;;;5003868;28;20229;-30
2022/11/16 11:42:03;;;;;;;3.67;1.30;;;14.40;99.90;;;;;;4995407;28;20217;-30
2022/11/16 11:44:38;;;;;;;7.50;1.87;;;14.50;99.90;;;;;;5001012;28;20329;-30
2022/11/16 11:47:31;;;;;;;4.57;1.50;;;14.50;99.90;;;;;;4997534;28;20303;-30
2022/11/16 11:50:35;;;;;;;7.00;2.17;;;14.50;99.90;;;;;;4999384;28;20208;-30
2022/11/16 11:53:28;;;;;;;8.23;2.33;;;14.50;99.90;;;;;;4999819;28;20217;-30
2022/11/16 11:55:57;;;;;;;7.50;1.73;;;14.60;99.90;;;;;;5014472;28;20588;-29
2022/11/16 11:58:32;;;;;;;8.20;1.70;;;14.60;99.90;;;;;;5015770;28;20228;-30
2022/11/16 12:01:13;;;;;;;6.80;1.73;;;14.60;99.90;;;;;;5015771;28;20201;-30
2022/11/16 12:03:59;;;;;;;10.13;1.63;;;14.70;99.90;;;;;;4997832;28;20225;-30
2022/11/16 12:06:26;;;;;;;8.37;1.63;;;14.70;99.90;;;;;;5008456;28;20259;-30
2022/11/16 12:09:01;;;;;;;7.63;1.70;;;14.70;99.90;;;;;;5001918;28;20288;-30
2022/11/16 12:11:31;;;;;;;6.10;1.50;;;14.70;99.90;;;;;;5018368;28;20217;-30
2022/11/16 12:14:18;;;;;;;5.87;1.70;;;14.80;99.90;;;;;;5001414;28;20987;-30
2022/11/16 12:17:03;;;;;;;9.23;1.93;;;14.80;99.90;;;;;;5007666;28;20205;-29
2022/11/16 12:19:45;;;;;;;11.60;2.23;;;14.70;99.90;;;;;;5008197;28;20248;-29
2022/11/16 12:22:53;;;;;;;7.33;1.67;;;14.70;99.90;;;;;;5008492;28;20316;-29
2022/11/16 12:25:46;;;;;;;6.53;1.73;;;14.70;99.90;;;;;;5014830;28;20232;-30
2022/11/16 12:28:23;;;;;;;6.80;1.67;;;14.70;99.90;;;;;;5003570;28;20951;-29
2022/11/16 12:31:01;;;;;;;7.23;2.03;;;14.80;99.90;;;;;;5015422;28;20212;-30
2022/11/16 12:33:30;;;;;;;7.20;1.67;;;14.70;99.90;;;;;;5003370;28;20665;-29
2022/11/16 12:36:09;;;;;;;8.43;2.07;;;14.70;99.90;;;;;;5007528;28;20202;-29
2022/11/16 12:38:54;;;;;;;7.13;2.00;;;14.80;99.90;;;;;;4990475;28;20224;-30
2022/11/16 12:41:27;;;;;;;7.93;1.87;;;14.80;99.90;;;;;;5003682;28;20745;-30
2022/11/16 12:43:58;;;;;;;6.87;1.77;;;14.80;99.90;;;;;;5003901;28;20230;-30
2022/11/16 12:46:46;;;;;;;8.17;1.53;;;14.80;99.90;;;;;;4997241;28;20214;-29
2022/11/16 12:49:31;;;;;;;7.93;1.90;;;14.80;99.90;;;;;;5016526;28;20235;-29
2022/11/16 12:52:10;;;;;;;7.23;2.00;;;14.80;99.90;;;;;;4998822;28;20202;-29
2022/11/16 12:55:06;;;;;;;9.63;2.10;;;14.80;99.90;;;;;;4992110;28;20598;-29
2022/11/16 12:58:02;;;;;;;7.47;2.03;;;14.80;99.90;;;;;;4997572;28;20619;-29
2022/11/16 13:00:52;;;;;;;6.63;1.73;;;14.80;99.90;;;;;;5009371;28;20209;-30
2022/11/16 13:03:41;;;;;;;8.20;1.80;;;14.80;99.90;;;;;;5006196;28;20194;-29
2022/11/16 13:06:15;;;;;;;8.40;1.90;;;14.80;99.90;;;;;;5013963;28;20217;-29
2022/11/16 13:09:06;;;;;;;6.43;1.77;;;14.80;99.90;;;;;;4999873;28;20257;-29
2022/11/16 13:11:42;;;;;;;6.77;2.17;;;14.90;99.90;;;;;;5004292;28;20206;-29
2022/11/16 13:14:23;;;;;;;8.40;1.93;;;14.90;99.90;;;;;;5013165;28;20200;-30
2022/11/16 13:16:52;;;;;;;6.10;1.80;;;14.90;99.90;;;;;;5010201;28;20676;-30
2022/11/16 13:19:23;;;;;;;7.00;1.70;;;14.90;99.90;;;;;;4998323;28;20328;-30
2022/11/16 13:22:02;;;;;;;5.33;1.90;;;14.90;99.90;;;;;;5001769;28;20209;-30
2022/11/16 13:24:59;;;;;;;9.37;2.27;;;14.90;99.90;;;;;;5022923;28;20298;-30
2022/11/16 13:27:44;;;;;;;9.77;3.00;;;14.90;99.90;;;;;;5022606;28;20608;-29
2022/11/16 13:30:50;;;;;;;9.37;1.90;;;14.90;99.90;;;;;;4996185;28;20198;-29
2022/11/16 13:33:26;;;;;;;8.53;2.53;;;15.00;99.90;;;;;;4984380;28;20222;-29
2022/11/16 13:35:53;;;;;;;7.30;2.37;;;15.00;99.90;;;;;;5000944;28;20297;-29
2022/11/16 13:38:53;;;;;;;3.87;1.53;;;15.00;99.90;;;;;;4998127;28;20716;-30
2022/11/16 13:41:33;;;;;;;7.73;2.60;;;15.10;99.90;;;;;;5018568;28;20213;-30
2022/11/16 13:44:12;;;;;;;4.67;1.63;;;15.10;99.90;;;;;;5008252;28;20287;-31
2022/11/16 13:46:46;;;;;;;12.67;2.10;;;15.10;99.90;;;;;;5018162;28;20293;-30
2022/11/16 13:49:25;;;;;;;7.37;2.00;;;15.10;99.90;;;;;;5005262;28;20245;-30
2022/11/16 13:52:02;;;;;;;8.73;2.07;;;15.10;99.90;;;;;;5004486;28;20209;-30
2022/11/16 13:55:14;;;;;;;5.87;2.20;;;15.10;99.90;;;;;;5014327;28;20763;-30
2022/11/16 13:57:52;;;;;;;7.83;2.03;;;15.00;99.90;;;;;;5022326;28;20301;-30
2022/11/16 14:00:35;;;;;;;7.50;2.67;;;15.00;99.90;;;;;;5021208;28;20679;-30
2022/11/16 14:03:16;;;;;;;6.30;2.20;;;15.00;99.90;;;;;;4990891;28;20202;-30
2022/11/16 14:05:53;;;;;;;5.43;1.90;;;15.00;99.90;;;;;;5016434;28;20309;-29
2022/11/16 14:08:23;;;;;;;6.67;2.73;;;15.00;99.90;;;;;;5015805;28;20404;-30